sensor_id;sensor_type;location;lat;lon;timestamp;P1;durP1;ratioP1;P2;durP2;ratioP2
75441;SDS011;64019;48.312;14.226;2023-03-15T00:00:46;3.63;;;1.13;;
75441;SDS011;64019;48.312;14.226;2023-03-15T00:03:12;2.03;;;0.90;;
75441;SDS011;64019;48.312;14.226;2023-03-15T00:05:42;4.87;;;1.30;;
75441;SDS011;64019;48.312;14.226;2023-03-15T00:08:08;2.83;;;1.30;;
75441;SDS011;64019;48.312;14.226;2023-03-15T00:10:38;1.80;;;0.80;;
75441;SDS011;64019;48.312;14.226;2023-03-15T00:13:08;5.27;;;0.90;;
75441;SDS011;64019;48.312;14.226;2023-03-15T00:15:34;2.20;;;0.80;;
75441;SDS011;64019;48.312;14.226;2023-03-15T00:18:00;2.13;;;1.00;;
75441;SDS011;64019;48.312;14.226;2023-03-15T00:20:29;3.70;;;0.97;;
75441;SDS011;64019;48.312;14.226;2023-03-15T00:22:55;4.60;;;0.90;;
75441;SDS011;64019;48.312;14.226;2023-03-15T00:25:20;1.30;;;0.90;;
75441;SDS011;64019;48.312;14.226;2023-03-15T00:27:46;4.10;;;0.97;;
75441;SDS011;64019;48.312;14.226;2023-03-15T00:30:11;3.83;;;0.80;;
75441;SDS011;64019;48.312;14.226;2023-03-15T00:32:37;2.33;;;1.10;;
75441;SDS011;64019;48.312;14.226;2023-03-15T00:35:03;1.73;;;0.80;;
75441;SDS011;64019;48.312;14.226;2023-03-15T00:37:30;1.23;;;0.83;;
75441;SDS011;64019;48.312;14.226;2023-03-15T00:39:56;2.03;;;1.03;;
75441;SDS011;64019;48.312;14.226;2023-03-15T00:42:21;2.80;;;1.10;;
75441;SDS011;64019;48.312;14.226;2023-03-15T00:44:51;4.80;;;1.00;;
75441;SDS011;64019;48.312;14.226;2023-03-15T00:47:19;2.57;;;1.00;;
75441;SDS011;64019;48.312;14.226;2023-03-15T00:49:45;1.50;;;1.17;;
75441;SDS011;64019;48.312;14.226;2023-03-15T00:52:10;4.60;;;1.03;;
75441;SDS011;64019;48.312;14.226;2023-03-15T00:54:36;1.37;;;0.90;;
75441;SDS011;64019;48.312;14.226;2023-03-15T00:57:02;1.07;;;0.87;;
75441;SDS011;64019;48.312;14.226;2023-03-15T00:59:28;1.83;;;0.80;;
75441;SDS011;64019;48.312;14.226;2023-03-15T01:01:59;3.13;;;0.70;;
75441;SDS011;64019;48.312;14.226;2023-03-15T01:04:25;3.20;;;0.90;;
75441;SDS011;64019;48.312;14.226;2023-03-15T01:06:51;1.33;;;1.03;;
75441;SDS011;64019;48.312;14.226;2023-03-15T01:09:17;1.47;;;1.00;;
75441;SDS011;64019;48.312;14.226;2023-03-15T01:11:42;1.63;;;0.90;;
75441;SDS011;64019;48.312;14.226;2023-03-15T01:14:08;1.27;;;0.93;;
75441;SDS011;64019;48.312;14.226;2023-03-15T01:16:34;4.40;;;0.90;;
75441;SDS011;64019;48.312;14.226;2023-03-15T01:19:00;1.53;;;1.10;;
75441;SDS011;64019;48.312;14.226;2023-03-15T01:21:25;1.57;;;0.70;;
75441;SDS011;64019;48.312;14.226;2023-03-15T01:23:52;5.33;;;1.00;;
75441;SDS011;64019;48.312;14.226;2023-03-15T01:26:18;1.93;;;0.70;;
75441;SDS011;64019;48.312;14.226;2023-03-15T01:28:44;1.97;;;1.07;;
75441;SDS011;64019;48.312;14.226;2023-03-15T01:31:18;4.03;;;1.43;;
75441;SDS011;64019;48.312;14.226;2023-03-15T01:33:43;3.60;;;1.10;;
75441;SDS011;64019;48.312;14.226;2023-03-15T01:36:10;3.20;;;1.27;;
75441;SDS011;64019;48.312;14.226;2023-03-15T01:38:36;3.33;;;1.17;;
75441;SDS011;64019;48.312;14.226;2023-03-15T01:41:02;1.57;;;1.20;;
75441;SDS011;64019;48.312;14.226;2023-03-15T01:43:28;1.80;;;1.10;;
75441;SDS011;64019;48.312;14.226;2023-03-15T01:48:33;2.73;;;1.43;;
75441;SDS011;64019;48.312;14.226;2023-03-15T01:51:04;4.03;;;1.40;;
75441;SDS011;64019;48.312;14.226;2023-03-15T01:53:35;1.40;;;0.97;;
75441;SDS011;64019;48.312;14.226;2023-03-15T01:56:01;2.17;;;1.13;;
75441;SDS011;64019;48.312;14.226;2023-03-15T01:58:29;2.90;;;1.30;;
75441;SDS011;64019;48.312;14.226;2023-03-15T02:00:55;2.07;;;1.10;;
75441;SDS011;64019;48.312;14.226;2023-03-15T02:03:22;2.37;;;1.10;;
75441;SDS011;64019;48.312;14.226;2023-03-15T02:05:55;3.37;;;1.43;;
75441;SDS011;64019;48.312;14.226;2023-03-15T02:08:27;3.70;;;1.37;;
75441;SDS011;64019;48.312;14.226;2023-03-15T02:10:57;4.87;;;1.10;;
75441;SDS011;64019;48.312;14.226;2023-03-15T02:13:25;4.10;;;1.53;;
75441;SDS011;64019;48.312;14.226;2023-03-15T02:15:54;1.67;;;1.10;;
75441;SDS011;64019;48.312;14.226;2023-03-15T02:18:20;1.77;;;1.20;;
75441;SDS011;64019;48.312;14.226;2023-03-15T02:20:55;1.17;;;1.00;;
75441;SDS011;64019;48.312;14.226;2023-03-15T02:23:24;1.57;;;1.13;;
75441;SDS011;64019;48.312;14.226;2023-03-15T02:28:20;6.93;;;1.27;;
75441;SDS011;64019;48.312;14.226;2023-03-15T02:30:47;1.23;;;1.10;;
75441;SDS011;64019;48.312;14.226;2023-03-15T02:33:26;1.80;;;1.43;;
75441;SDS011;64019;48.312;14.226;2023-03-15T02:36:20;1.47;;;1.00;;
75441;SDS011;64019;48.312;14.226;2023-03-15T02:38:46;3.10;;;1.20;;
75441;SDS011;64019;48.312;14.226;2023-03-15T02:41:14;4.43;;;1.20;;
75441;SDS011;64019;48.312;14.226;2023-03-15T02:43:43;1.73;;;0.90;;
75441;SDS011;64019;48.312;14.226;2023-03-15T02:46:11;5.40;;;1.30;;
75441;SDS011;64019;48.312;14.226;2023-03-15T02:48:38;3.00;;;1.10;;
75441;SDS011;64019;48.312;14.226;2023-03-15T02:51:05;3.30;;;1.33;;
75441;SDS011;64019;48.312;14.226;2023-03-15T02:53:31;4.63;;;1.10;;
75441;SDS011;64019;48.312;14.226;2023-03-15T02:55:57;1.90;;;1.07;;
75441;SDS011;64019;48.312;14.226;2023-03-15T02:58:23;3.83;;;1.20;;
75441;SDS011;64019;48.312;14.226;2023-03-15T03:00:51;2.03;;;1.27;;
75441;SDS011;64019;48.312;14.226;2023-03-15T03:03:17;2.27;;;1.50;;
75441;SDS011;64019;48.312;14.226;2023-03-15T03:05:43;5.20;;;1.17;;
75441;SDS011;64019;48.312;14.226;2023-03-15T03:08:09;2.97;;;1.40;;
75441;SDS011;64019;48.312;14.226;2023-03-15T03:10:35;2.50;;;1.37;;
75441;SDS011;64019;48.312;14.226;2023-03-15T03:13:00;2.50;;;1.33;;
75441;SDS011;64019;48.312;14.226;2023-03-15T03:15:26;3.50;;;1.47;;
75441;SDS011;64019;48.312;14.226;2023-03-15T03:17:51;4.03;;;1.20;;
75441;SDS011;64019;48.312;14.226;2023-03-15T03:20:18;3.60;;;1.17;;
75441;SDS011;64019;48.312;14.226;2023-03-15T03:22:44;2.27;;;1.50;;
75441;SDS011;64019;48.312;14.226;2023-03-15T03:25:09;3.40;;;1.40;;
75441;SDS011;64019;48.312;14.226;2023-03-15T03:27:36;2.90;;;1.30;;
75441;SDS011;64019;48.312;14.226;2023-03-15T03:30:06;2.80;;;1.47;;
75441;SDS011;64019;48.312;14.226;2023-03-15T03:32:34;3.37;;;1.30;;
75441;SDS011;64019;48.312;14.226;2023-03-15T03:34:59;2.53;;;1.30;;
75441;SDS011;64019;48.312;14.226;2023-03-15T03:37:25;3.93;;;1.47;;
75441;SDS011;64019;48.312;14.226;2023-03-15T03:39:51;3.50;;;1.57;;
75441;SDS011;64019;48.312;14.226;2023-03-15T03:42:18;2.50;;;1.23;;
75441;SDS011;64019;48.312;14.226;2023-03-15T03:44:44;1.50;;;1.13;;
75441;SDS011;64019;48.312;14.226;2023-03-15T03:47:09;3.57;;;1.30;;
75441;SDS011;64019;48.312;14.226;2023-03-15T03:49:35;4.30;;;1.70;;
75441;SDS011;64019;48.312;14.226;2023-03-15T03:52:00;4.13;;;1.60;;
75441;SDS011;64019;48.312;14.226;2023-03-15T03:54:26;2.73;;;1.60;;
75441;SDS011;64019;48.312;14.226;2023-03-15T03:56:52;3.27;;;1.30;;
75441;SDS011;64019;48.312;14.226;2023-03-15T03:59:18;2.87;;;1.33;;
75441;SDS011;64019;48.312;14.226;2023-03-15T04:01:43;3.07;;;1.47;;
75441;SDS011;64019;48.312;14.226;2023-03-15T04:04:09;2.90;;;1.63;;
75441;SDS011;64019;48.312;14.226;2023-03-15T04:06:38;5.90;;;1.50;;
75441;SDS011;64019;48.312;14.226;2023-03-15T04:09:09;1.80;;;1.50;;
75441;SDS011;64019;48.312;14.226;2023-03-15T04:11:36;6.47;;;1.87;;
75441;SDS011;64019;48.312;14.226;2023-03-15T04:14:03;1.37;;;1.20;;
75441;SDS011;64019;48.312;14.226;2023-03-15T04:16:29;3.13;;;1.27;;
75441;SDS011;64019;48.312;14.226;2023-03-15T04:18:54;2.90;;;1.30;;
75441;SDS011;64019;48.312;14.226;2023-03-15T04:21:21;5.73;;;1.77;;
75441;SDS011;64019;48.312;14.226;2023-03-15T04:23:47;2.43;;;1.30;;
75441;SDS011;64019;48.312;14.226;2023-03-15T04:26:12;5.33;;;1.67;;
75441;SDS011;64019;48.312;14.226;2023-03-15T04:28:38;3.60;;;1.47;;
75441;SDS011;64019;48.312;14.226;2023-03-15T04:31:04;2.97;;;1.53;;
75441;SDS011;64019;48.312;14.226;2023-03-15T04:33:34;6.63;;;2.07;;
75441;SDS011;64019;48.312;14.226;2023-03-15T04:36:00;7.30;;;1.57;;
75441;SDS011;64019;48.312;14.226;2023-03-15T04:38:26;6.33;;;1.50;;
75441;SDS011;64019;48.312;14.226;2023-03-15T04:40:53;3.17;;;1.30;;
75441;SDS011;64019;48.312;14.226;2023-03-15T04:43:19;2.27;;;1.93;;
75441;SDS011;64019;48.312;14.226;2023-03-15T04:45:44;1.63;;;1.20;;
75441;SDS011;64019;48.312;14.226;2023-03-15T04:48:10;4.83;;;1.10;;
75441;SDS011;64019;48.312;14.226;2023-03-15T04:50:36;4.43;;;1.43;;
75441;SDS011;64019;48.312;14.226;2023-03-15T04:53:02;3.03;;;1.80;;
75441;SDS011;64019;48.312;14.226;2023-03-15T04:55:27;3.73;;;1.60;;
75441;SDS011;64019;48.312;14.226;2023-03-15T04:57:53;3.20;;;1.40;;
75441;SDS011;64019;48.312;14.226;2023-03-15T05:00:19;6.80;;;1.30;;
75441;SDS011;64019;48.312;14.226;2023-03-15T05:02:45;4.80;;;1.83;;
75441;SDS011;64019;48.312;14.226;2023-03-15T05:05:18;2.53;;;1.10;;
75441;SDS011;64019;48.312;14.226;2023-03-15T05:07:44;2.97;;;1.33;;
75441;SDS011;64019;48.312;14.226;2023-03-15T05:10:10;3.77;;;1.30;;
75441;SDS011;64019;48.312;14.226;2023-03-15T05:12:36;3.83;;;1.37;;
75441;SDS011;64019;48.312;14.226;2023-03-15T05:15:02;3.63;;;1.20;;
75441;SDS011;64019;48.312;14.226;2023-03-15T05:17:28;2.67;;;1.27;;
75441;SDS011;64019;48.312;14.226;2023-03-15T05:19:53;5.33;;;1.53;;
75441;SDS011;64019;48.312;14.226;2023-03-15T05:22:19;2.10;;;1.40;;
75441;SDS011;64019;48.312;14.226;2023-03-15T05:24:49;4.30;;;1.70;;
75441;SDS011;64019;48.312;14.226;2023-03-15T05:27:15;2.30;;;1.60;;
75441;SDS011;64019;48.312;14.226;2023-03-15T05:29:41;5.93;;;2.03;;
75441;SDS011;64019;48.312;14.226;2023-03-15T05:32:07;2.77;;;1.80;;
75441;SDS011;64019;48.312;14.226;2023-03-15T05:34:32;3.57;;;2.13;;
75441;SDS011;64019;48.312;14.226;2023-03-15T05:36:58;3.10;;;1.90;;
75441;SDS011;64019;48.312;14.226;2023-03-15T05:39:24;5.57;;;1.80;;
75441;SDS011;64019;48.312;14.226;2023-03-15T05:41:50;2.47;;;1.80;;
75441;SDS011;64019;48.312;14.226;2023-03-15T05:44:16;2.57;;;1.90;;
75441;SDS011;64019;48.312;14.226;2023-03-15T05:46:41;2.90;;;1.80;;
75441;SDS011;64019;48.312;14.226;2023-03-15T05:49:08;4.80;;;2.10;;
75441;SDS011;64019;48.312;14.226;2023-03-15T05:51:33;4.47;;;1.60;;
75441;SDS011;64019;48.312;14.226;2023-03-15T05:53:59;2.07;;;1.50;;
75441;SDS011;64019;48.312;14.226;2023-03-15T05:56:25;3.10;;;1.20;;
75441;SDS011;64019;48.312;14.226;2023-03-15T05:58:50;2.90;;;1.33;;
75441;SDS011;64019;48.312;14.226;2023-03-15T06:01:16;1.37;;;1.20;;
75441;SDS011;64019;48.312;14.226;2023-03-15T06:03:41;1.90;;;1.60;;
75441;SDS011;64019;48.312;14.226;2023-03-15T06:06:07;3.97;;;1.50;;
75441;SDS011;64019;48.312;14.226;2023-03-15T06:08:33;1.97;;;1.53;;
75441;SDS011;64019;48.312;14.226;2023-03-15T06:10:58;1.83;;;1.10;;
75441;SDS011;64019;48.312;14.226;2023-03-15T06:13:24;1.70;;;1.20;;
75441;SDS011;64019;48.312;14.226;2023-03-15T06:15:50;2.13;;;1.40;;
75441;SDS011;64019;48.312;14.226;2023-03-15T06:18:15;8.43;;;2.07;;
75441;SDS011;64019;48.312;14.226;2023-03-15T06:20:41;4.20;;;1.20;;
75441;SDS011;64019;48.312;14.226;2023-03-15T06:23:08;3.50;;;1.23;;
75441;SDS011;64019;48.312;14.226;2023-03-15T06:25:34;2.63;;;1.10;;
75441;SDS011;64019;48.312;14.226;2023-03-15T06:28:00;3.07;;;1.20;;
75441;SDS011;64019;48.312;14.226;2023-03-15T06:30:26;5.33;;;1.50;;
75441;SDS011;64019;48.312;14.226;2023-03-15T06:32:52;3.40;;;1.60;;
75441;SDS011;64019;48.312;14.226;2023-03-15T06:35:18;5.53;;;1.90;;
75441;SDS011;64019;48.312;14.226;2023-03-15T06:37:44;3.97;;;1.60;;
75441;SDS011;64019;48.312;14.226;2023-03-15T06:40:10;6.73;;;2.17;;
75441;SDS011;64019;48.312;14.226;2023-03-15T06:42:36;6.40;;;1.93;;
75441;SDS011;64019;48.312;14.226;2023-03-15T06:45:03;4.10;;;2.17;;
75441;SDS011;64019;48.312;14.226;2023-03-15T06:47:30;5.43;;;1.73;;
75441;SDS011;64019;48.312;14.226;2023-03-15T06:49:56;4.77;;;2.33;;
75441;SDS011;64019;48.312;14.226;2023-03-15T06:52:21;4.60;;;1.90;;
75441;SDS011;64019;48.312;14.226;2023-03-15T06:54:47;6.83;;;2.00;;
75441;SDS011;64019;48.312;14.226;2023-03-15T06:57:13;5.93;;;2.00;;
75441;SDS011;64019;48.312;14.226;2023-03-15T06:59:39;5.90;;;2.00;;
75441;SDS011;64019;48.312;14.226;2023-03-15T07:02:05;2.70;;;1.63;;
75441;SDS011;64019;48.312;14.226;2023-03-15T07:04:31;5.10;;;1.90;;
75441;SDS011;64019;48.312;14.226;2023-03-15T07:06:56;3.37;;;1.80;;
75441;SDS011;64019;48.312;14.226;2023-03-15T07:09:22;3.30;;;2.07;;
75441;SDS011;64019;48.312;14.226;2023-03-15T07:11:48;4.80;;;2.30;;
75441;SDS011;64019;48.312;14.226;2023-03-15T07:14:13;12.00;;;2.50;;
75441;SDS011;64019;48.312;14.226;2023-03-15T07:16:39;8.93;;;2.33;;
75441;SDS011;64019;48.312;14.226;2023-03-15T07:19:05;5.60;;;2.40;;
75441;SDS011;64019;48.312;14.226;2023-03-15T07:21:30;8.93;;;2.37;;
75441;SDS011;64019;48.312;14.226;2023-03-15T07:23:56;7.33;;;2.20;;
75441;SDS011;64019;48.312;14.226;2023-03-15T07:26:22;7.10;;;2.30;;
75441;SDS011;64019;48.312;14.226;2023-03-15T07:28:47;11.20;;;2.47;;
75441;SDS011;64019;48.312;14.226;2023-03-15T07:31:13;9.97;;;2.87;;
75441;SDS011;64019;48.312;14.226;2023-03-15T07:33:38;6.10;;;2.30;;
75441;SDS011;64019;48.312;14.226;2023-03-15T07:36:05;6.73;;;2.40;;
75441;SDS011;64019;48.312;14.226;2023-03-15T07:38:32;9.10;;;2.43;;
75441;SDS011;64019;48.312;14.226;2023-03-15T07:41:03;6.80;;;1.90;;
75441;SDS011;64019;48.312;14.226;2023-03-15T07:43:30;5.87;;;1.97;;
75441;SDS011;64019;48.312;14.226;2023-03-15T07:45:55;6.90;;;2.43;;
75441;SDS011;64019;48.312;14.226;2023-03-15T07:48:21;9.87;;;2.37;;
75441;SDS011;64019;48.312;14.226;2023-03-15T07:50:47;7.30;;;1.80;;
75441;SDS011;64019;48.312;14.226;2023-03-15T07:53:12;2.50;;;1.60;;
75441;SDS011;64019;48.312;14.226;2023-03-15T07:55:38;5.53;;;1.80;;
75441;SDS011;64019;48.312;14.226;2023-03-15T07:58:04;7.13;;;2.00;;
75441;SDS011;64019;48.312;14.226;2023-03-15T08:00:30;4.23;;;1.80;;
75441;SDS011;64019;48.312;14.226;2023-03-15T08:02:56;4.43;;;1.70;;
75441;SDS011;64019;48.312;14.226;2023-03-15T08:05:22;7.20;;;1.73;;
75441;SDS011;64019;48.312;14.226;2023-03-15T08:07:48;6.03;;;2.50;;
75441;SDS011;64019;48.312;14.226;2023-03-15T08:10:15;6.10;;;1.60;;
75441;SDS011;64019;48.312;14.226;2023-03-15T08:12:41;8.03;;;2.33;;
75441;SDS011;64019;48.312;14.226;2023-03-15T08:15:13;5.73;;;1.80;;
75441;SDS011;64019;48.312;14.226;2023-03-15T08:17:40;9.43;;;1.80;;
75441;SDS011;64019;48.312;14.226;2023-03-15T08:20:06;5.63;;;1.60;;
75441;SDS011;64019;48.312;14.226;2023-03-15T08:22:39;4.50;;;1.80;;
75441;SDS011;64019;48.312;14.226;2023-03-15T08:25:08;6.20;;;2.17;;
75441;SDS011;64019;48.312;14.226;2023-03-15T08:27:35;3.97;;;1.90;;
75441;SDS011;64019;48.312;14.226;2023-03-15T08:30:01;7.30;;;2.27;;
75441;SDS011;64019;48.312;14.226;2023-03-15T08:32:27;6.53;;;1.63;;
75441;SDS011;64019;48.312;14.226;2023-03-15T08:34:53;6.37;;;2.33;;
75441;SDS011;64019;48.312;14.226;2023-03-15T08:37:18;7.30;;;2.20;;
75441;SDS011;64019;48.312;14.226;2023-03-15T08:39:45;3.13;;;1.90;;
75441;SDS011;64019;48.312;14.226;2023-03-15T08:42:10;6.37;;;2.13;;
75441;SDS011;64019;48.312;14.226;2023-03-15T08:44:36;5.63;;;1.73;;
75441;SDS011;64019;48.312;14.226;2023-03-15T08:47:01;8.27;;;1.87;;
75441;SDS011;64019;48.312;14.226;2023-03-15T08:49:29;3.53;;;2.33;;
75441;SDS011;64019;48.312;14.226;2023-03-15T08:51:54;5.07;;;2.10;;
75441;SDS011;64019;48.312;14.226;2023-03-15T08:54:20;9.83;;;2.63;;
75441;SDS011;64019;48.312;14.226;2023-03-15T08:56:47;7.47;;;1.97;;
75441;SDS011;64019;48.312;14.226;2023-03-15T08:59:13;4.77;;;2.53;;
75441;SDS011;64019;48.312;14.226;2023-03-15T09:01:39;4.87;;;2.00;;
75441;SDS011;64019;48.312;14.226;2023-03-15T09:04:05;5.13;;;2.20;;
75441;SDS011;64019;48.312;14.226;2023-03-15T09:06:31;8.83;;;2.37;;
75441;SDS011;64019;48.312;14.226;2023-03-15T09:08:56;7.13;;;2.10;;
75441;SDS011;64019;48.312;14.226;2023-03-15T09:11:22;9.77;;;2.00;;
75441;SDS011;64019;48.312;14.226;2023-03-15T09:13:48;9.50;;;2.33;;
75441;SDS011;64019;48.312;14.226;2023-03-15T09:16:13;9.00;;;2.87;;
75441;SDS011;64019;48.312;14.226;2023-03-15T09:18:39;4.57;;;1.83;;
75441;SDS011;64019;48.312;14.226;2023-03-15T09:21:05;4.80;;;1.83;;
75441;SDS011;64019;48.312;14.226;2023-03-15T09:23:31;4.40;;;1.80;;
75441;SDS011;64019;48.312;14.226;2023-03-15T09:25:57;7.70;;;2.77;;
75441;SDS011;64019;48.312;14.226;2023-03-15T09:28:23;8.80;;;1.63;;
75441;SDS011;64019;48.312;14.226;2023-03-15T09:30:49;4.90;;;1.80;;
75441;SDS011;64019;48.312;14.226;2023-03-15T09:33:15;5.53;;;1.60;;
75441;SDS011;64019;48.312;14.226;2023-03-15T09:35:41;3.03;;;1.50;;
75441;SDS011;64019;48.312;14.226;2023-03-15T09:38:07;8.90;;;1.80;;
75441;SDS011;64019;48.312;14.226;2023-03-15T09:40:42;10.60;;;1.87;;
75441;SDS011;64019;48.312;14.226;2023-03-15T09:49:54;6.60;;;1.73;;
75441;SDS011;64019;48.312;14.226;2023-03-15T09:51:50;5.23;;;1.40;;
75441;SDS011;64019;48.312;14.226;2023-03-15T09:54:25;7.63;;;1.73;;
75441;SDS011;64019;48.312;14.226;2023-03-15T09:56:59;6.07;;;1.90;;
75441;SDS011;64019;48.312;14.226;2023-03-15T09:59:35;5.97;;;1.60;;
75441;SDS011;64019;48.312;14.226;2023-03-15T10:04:47;5.60;;;2.07;;
75441;SDS011;64019;48.312;14.226;2023-03-15T10:07:16;5.70;;;1.83;;
75441;SDS011;64019;48.312;14.226;2023-03-15T10:09:42;6.97;;;1.73;;
75441;SDS011;64019;48.312;14.226;2023-03-15T10:14:55;3.10;;;1.33;;
75441;SDS011;64019;48.312;14.226;2023-03-15T10:20:14;7.80;;;1.30;;
75441;SDS011;64019;48.312;14.226;2023-03-15T10:25:25;4.33;;;1.57;;
75441;SDS011;64019;48.312;14.226;2023-03-15T10:27:56;8.70;;;1.30;;
75441;SDS011;64019;48.312;14.226;2023-03-15T10:30:29;4.27;;;1.50;;
75441;SDS011;64019;48.312;14.226;2023-03-15T10:35:38;6.53;;;1.50;;
75441;SDS011;64019;48.312;14.226;2023-03-15T10:38:12;11.43;;;2.20;;
75441;SDS011;64019;48.312;14.226;2023-03-15T10:40:53;10.87;;;1.73;;
75441;SDS011;64019;48.312;14.226;2023-03-15T10:45:59;5.17;;;1.90;;
75441;SDS011;64019;48.312;14.226;2023-03-15T10:48:29;5.07;;;1.57;;
75441;SDS011;64019;48.312;14.226;2023-03-15T10:51:17;2.37;;;1.50;;
75441;SDS011;64019;48.312;14.226;2023-03-15T10:53:54;3.93;;;1.90;;
75441;SDS011;64019;48.312;14.226;2023-03-15T10:56:26;7.43;;;1.90;;
75441;SDS011;64019;48.312;14.226;2023-03-15T10:58:55;3.37;;;1.90;;
75441;SDS011;64019;48.312;14.226;2023-03-15T11:01:26;4.80;;;1.70;;
75441;SDS011;64019;48.312;14.226;2023-03-15T11:04:00;3.23;;;1.50;;
75441;SDS011;64019;48.312;14.226;2023-03-15T11:06:38;9.93;;;2.20;;
75441;SDS011;64019;48.312;14.226;2023-03-15T11:09:27;8.80;;;2.00;;
75441;SDS011;64019;48.312;14.226;2023-03-15T11:12:11;6.57;;;1.97;;
75441;SDS011;64019;48.312;14.226;2023-03-15T11:14:46;7.93;;;1.90;;
75441;SDS011;64019;48.312;14.226;2023-03-15T11:17:17;2.87;;;1.60;;
75441;SDS011;64019;48.312;14.226;2023-03-15T11:19:48;4.67;;;1.37;;
75441;SDS011;64019;48.312;14.226;2023-03-15T11:22:35;6.27;;;1.60;;
75441;SDS011;64019;48.312;14.226;2023-03-15T11:25:00;4.47;;;1.53;;
75441;SDS011;64019;48.312;14.226;2023-03-15T11:27:26;10.17;;;1.63;;
75441;SDS011;64019;48.312;14.226;2023-03-15T11:29:54;5.93;;;2.33;;
75441;SDS011;64019;48.312;14.226;2023-03-15T11:32:25;3.30;;;1.63;;
75441;SDS011;64019;48.312;14.226;2023-03-15T11:37:37;6.47;;;1.80;;
75441;SDS011;64019;48.312;14.226;2023-03-15T11:40:22;6.70;;;1.50;;
75441;SDS011;64019;48.312;14.226;2023-03-15T11:43:10;5.23;;;1.73;;
75441;SDS011;64019;48.312;14.226;2023-03-15T11:50:56;7.80;;;2.07;;
75441;SDS011;64019;48.312;14.226;2023-03-15T11:53:24;3.07;;;1.73;;
75441;SDS011;64019;48.312;14.226;2023-03-15T11:56:01;7.67;;;1.60;;
75441;SDS011;64019;48.312;14.226;2023-03-15T11:58:44;5.43;;;1.40;;
75441;SDS011;64019;48.312;14.226;2023-03-15T12:01:26;2.93;;;1.47;;
75441;SDS011;64019;48.312;14.226;2023-03-15T12:03:54;5.37;;;1.90;;
75441;SDS011;64019;48.312;14.226;2023-03-15T12:06:49;5.93;;;1.97;;
75441;SDS011;64019;48.312;14.226;2023-03-15T12:17:57;2.50;;;1.80;;
75441;SDS011;64019;48.312;14.226;2023-03-15T12:20:33;3.23;;;1.53;;
75441;SDS011;64019;48.312;14.226;2023-03-15T12:28:21;7.30;;;1.60;;
75441;SDS011;64019;48.312;14.226;2023-03-15T12:31:00;6.60;;;1.80;;
75441;SDS011;64019;48.312;14.226;2023-03-15T12:33:29;3.83;;;1.50;;
75441;SDS011;64019;48.312;14.226;2023-03-15T12:36:00;5.63;;;2.00;;
75441;SDS011;64019;48.312;14.226;2023-03-15T12:38:37;7.57;;;1.80;;
75441;SDS011;64019;48.312;14.226;2023-03-15T12:41:09;7.53;;;2.10;;
75441;SDS011;64019;48.312;14.226;2023-03-15T12:44:35;7.97;;;2.20;;
75441;SDS011;64019;48.312;14.226;2023-03-15T12:47:08;5.80;;;2.20;;
75441;SDS011;64019;48.312;14.226;2023-03-15T12:49:37;5.17;;;1.77;;
75441;SDS011;64019;48.312;14.226;2023-03-15T12:54:44;6.90;;;1.77;;
75441;SDS011;64019;48.312;14.226;2023-03-15T12:57:16;6.63;;;2.00;;
75441;SDS011;64019;48.312;14.226;2023-03-15T13:02:37;5.63;;;2.10;;
75441;SDS011;64019;48.312;14.226;2023-03-15T13:08:05;4.83;;;2.03;;
75441;SDS011;64019;48.312;14.226;2023-03-15T13:10:38;4.60;;;1.80;;
75441;SDS011;64019;48.312;14.226;2023-03-15T13:19:29;4.40;;;1.90;;
75441;SDS011;64019;48.312;14.226;2023-03-15T13:21:35;6.10;;;1.90;;
75441;SDS011;64019;48.312;14.226;2023-03-15T13:24:11;4.30;;;1.83;;
75441;SDS011;64019;48.312;14.226;2023-03-15T13:26:58;3.10;;;1.77;;
75441;SDS011;64019;48.312;14.226;2023-03-15T13:29:39;5.03;;;1.93;;
75441;SDS011;64019;48.312;14.226;2023-03-15T13:34:39;3.20;;;1.70;;
75441;SDS011;64019;48.312;14.226;2023-03-15T13:37:15;6.00;;;1.53;;
75441;SDS011;64019;48.312;14.226;2023-03-15T13:39:53;4.73;;;1.80;;
75441;SDS011;64019;48.312;14.226;2023-03-15T13:42:26;4.47;;;1.70;;
75441;SDS011;64019;48.312;14.226;2023-03-15T13:47:47;5.70;;;2.33;;
75441;SDS011;64019;48.312;14.226;2023-03-15T13:50:14;5.07;;;2.13;;
75441;SDS011;64019;48.312;14.226;2023-03-15T13:52:41;5.60;;;2.20;;
75441;SDS011;64019;48.312;14.226;2023-03-15T13:55:08;4.73;;;1.70;;
75441;SDS011;64019;48.312;14.226;2023-03-15T13:57:38;3.80;;;1.87;;
75441;SDS011;64019;48.312;14.226;2023-03-15T14:00:08;3.50;;;1.50;;
75441;SDS011;64019;48.312;14.226;2023-03-15T14:05:10;4.17;;;1.60;;
75441;SDS011;64019;48.312;14.226;2023-03-15T14:07:39;15.07;;;2.20;;
75441;SDS011;64019;48.312;14.226;2023-03-15T14:12:43;5.60;;;1.80;;
75441;SDS011;64019;48.312;14.226;2023-03-15T14:15:17;7.67;;;1.90;;
75441;SDS011;64019;48.312;14.226;2023-03-15T14:18:12;3.23;;;1.87;;
75441;SDS011;64019;48.312;14.226;2023-03-15T14:23:13;4.23;;;1.90;;
75441;SDS011;64019;48.312;14.226;2023-03-15T14:25:40;5.77;;;2.07;;
75441;SDS011;64019;48.312;14.226;2023-03-15T14:28:09;6.30;;;1.87;;
75441;SDS011;64019;48.312;14.226;2023-03-15T14:30:39;5.10;;;1.73;;
75441;SDS011;64019;48.312;14.226;2023-03-15T14:33:05;6.27;;;2.13;;
75441;SDS011;64019;48.312;14.226;2023-03-15T14:40:38;2.97;;;1.70;;
75441;SDS011;64019;48.312;14.226;2023-03-15T14:43:05;8.23;;;2.20;;
75441;SDS011;64019;48.312;14.226;2023-03-15T14:45:33;3.10;;;1.60;;
75441;SDS011;64019;48.312;14.226;2023-03-15T14:48:23;4.20;;;2.20;;
75441;SDS011;64019;48.312;14.226;2023-03-15T14:50:52;5.27;;;2.03;;
75441;SDS011;64019;48.312;14.226;2023-03-15T14:53:20;2.10;;;1.67;;
75441;SDS011;64019;48.312;14.226;2023-03-15T14:55:48;5.73;;;2.00;;
75441;SDS011;64019;48.312;14.226;2023-03-15T14:58:17;4.70;;;1.67;;
75441;SDS011;64019;48.312;14.226;2023-03-15T15:00:46;3.63;;;1.97;;
75441;SDS011;64019;48.312;14.226;2023-03-15T15:03:17;4.40;;;1.77;;
75441;SDS011;64019;48.312;14.226;2023-03-15T15:05:57;3.00;;;1.70;;
75441;SDS011;64019;48.312;14.226;2023-03-15T15:08:23;5.67;;;1.90;;
75441;SDS011;64019;48.312;14.226;2023-03-15T15:10:50;5.00;;;1.70;;
75441;SDS011;64019;48.312;14.226;2023-03-15T15:13:27;3.30;;;1.40;;
75441;SDS011;64019;48.312;14.226;2023-03-15T15:15:54;4.60;;;2.43;;
75441;SDS011;64019;48.312;14.226;2023-03-15T15:18:21;6.47;;;1.53;;
75441;SDS011;64019;48.312;14.226;2023-03-15T15:20:48;3.97;;;1.57;;
75441;SDS011;64019;48.312;14.226;2023-03-15T15:23:19;2.07;;;1.40;;
75441;SDS011;64019;48.312;14.226;2023-03-15T15:25:48;3.50;;;1.80;;
75441;SDS011;64019;48.312;14.226;2023-03-15T15:28:15;4.77;;;1.77;;
75441;SDS011;64019;48.312;14.226;2023-03-15T15:30:41;4.00;;;2.10;;
75441;SDS011;64019;48.312;14.226;2023-03-15T15:33:07;3.77;;;1.50;;
75441;SDS011;64019;48.312;14.226;2023-03-15T15:35:32;2.87;;;1.40;;
75441;SDS011;64019;48.312;14.226;2023-03-15T15:37:58;9.50;;;1.70;;
75441;SDS011;64019;48.312;14.226;2023-03-15T15:40:25;5.03;;;1.60;;
75441;SDS011;64019;48.312;14.226;2023-03-15T15:42:53;5.37;;;1.53;;
75441;SDS011;64019;48.312;14.226;2023-03-15T15:45:19;3.07;;;1.60;;
75441;SDS011;64019;48.312;14.226;2023-03-15T15:47:45;4.47;;;1.37;;
75441;SDS011;64019;48.312;14.226;2023-03-15T15:50:14;5.23;;;1.87;;
75441;SDS011;64019;48.312;14.226;2023-03-15T15:52:42;6.60;;;1.83;;
75441;SDS011;64019;48.312;14.226;2023-03-15T15:55:10;3.00;;;1.60;;
75441;SDS011;64019;48.312;14.226;2023-03-15T15:57:43;3.17;;;1.40;;
75441;SDS011;64019;48.312;14.226;2023-03-15T16:00:15;4.23;;;2.13;;
75441;SDS011;64019;48.312;14.226;2023-03-15T16:02:43;3.97;;;1.57;;